Raceland, Louisiana
Current Conditions -  °F | °C
As of 10:47 AM on Friday 31 Oct 2014 (Local Time) from KHUM Reporting Station
Clear Clear  
Wind Chill: 70°   Ceiling: Unl
Heat Index: 70°   Visibility: 7mi
Dew Point: 48°   Wind: 10mph
Humidity: 46%   Direction: 310°NW
Pressure: 30.08"   Gusts: NA
Location:  29.73°N, 90.61°W
Report Text: KHUM 311547Z 31009KT 7SM SKC 21/09 A3008 RMK ATIS ROMEO VA/RY36-RY12/30 CLSD...MS
Loading
Personal Weather Stations






























Interactive Weather Map New forecast layout! Learn more

10-Day Weather Forecast

Advertisements
Track Severe Weather on mobile